Time;durP1;ratioP1;P1;durP2;ratioP2;P2;SDS_P1;SDS_P2;PMS_P1;PMS_P2;Temp;Humidity;BMP_temperature;BMP_pressure;BME280_temperature;BME280_humidity;BME280_pressure;Samples;Min_cycle;Max_cycle;Signal;HPM_P1;HPM_P2
2023/01/26 00:00:51;;;;;;;33.92;16.40;;;2.60;99.90;;;;;;4950916;29;20199;-48
2023/01/26 00:03:18;;;;;;;32.15;15.95;;;2.50;99.90;;;;;;4951082;29;20282;-49
2023/01/26 00:05:45;;;;;;;29.35;15.65;;;3.00;99.90;;;;;;4951109;29;20527;-49
2023/01/26 00:08:12;;;;;;;27.77;16.00;;;2.80;99.90;;;;;;4950972;28;20223;-49
2023/01/26 00:10:40;;;;;;;35.65;16.55;;;2.80;99.90;;;;;;4951232;28;20565;-49
2023/01/26 00:13:08;;;;;;;29.80;17.30;;;2.50;99.90;;;;;;4951600;28;20206;-48
2023/01/26 00:15:36;;;;;;;31.45;16.50;;;2.80;99.90;;;;;;4951170;28;20212;-49
2023/01/26 00:18:03;;;;;;;28.60;16.55;;;2.80;99.90;;;;;;5016949;28;20235;-48
2023/01/26 00:20:30;;;;;;;31.45;15.65;;;2.90;99.90;;;;;;4951014;28;20214;-48
2023/01/26 00:22:57;;;;;;;26.70;17.38;;;2.60;99.90;;;;;;4951101;28;20207;-48
2023/01/26 00:25:24;;;;;;;33.88;17.42;;;2.80;99.90;;;;;;4950958;28;20203;-48
2023/01/26 00:27:50;;;;;;;27.17;15.82;;;2.50;99.90;;;;;;4950944;28;20219;-49
2023/01/26 00:30:17;;;;;;;28.50;16.58;;;2.80;99.90;;;;;;4950407;29;20200;-49
2023/01/26 00:32:45;;;;;;;30.40;17.95;;;2.70;99.90;;;;;;5017051;28;20254;-49
2023/01/26 00:35:12;;;;;;;25.77;16.50;;;2.20;99.90;;;;;;4950807;29;20199;-48
2023/01/26 00:37:41;;;;;;;30.65;16.05;;;2.50;99.90;;;;;;4950821;28;20238;-48
2023/01/26 00:40:09;;;;;;;28.60;16.48;;;2.90;99.90;;;;;;4950586;29;20211;-48
2023/01/26 00:42:35;;;;;;;29.10;15.90;;;2.70;99.90;;;;;;4950726;29;20203;-49
2023/01/26 00:45:02;;;;;;;23.23;15.02;;;2.60;99.90;;;;;;4950760;28;20212;-48
2023/01/26 00:47:29;;;;;;;26.75;16.17;;;2.30;99.90;;;;;;4950906;28;20219;-47
2023/01/26 00:49:58;;;;;;;32.70;17.08;;;2.40;99.90;;;;;;5016686;28;20203;-47
2023/01/26 00:52:28;;;;;;;33.63;15.30;;;2.70;99.90;;;;;;4951067;29;20195;-48
2023/01/26 00:54:58;;;;;;;27.17;16.27;;;2.30;99.90;;;;;;4951512;29;20192;-48
2023/01/26 00:57:24;;;;;;;32.25;16.60;;;2.70;99.90;;;;;;4951184;28;20227;-47
2023/01/26 00:59:51;;;;;;;27.95;14.88;;;2.40;99.90;;;;;;4951155;28;20204;-49
2023/01/26 01:02:17;;;;;;;31.65;16.80;;;2.50;99.90;;;;;;4951188;29;20203;-49
2023/01/26 01:04:44;;;;;;;27.52;17.50;;;2.70;99.90;;;;;;5017741;28;20211;-48
2023/01/26 01:07:12;;;;;;;31.85;16.77;;;2.40;99.90;;;;;;4950983;28;20227;-48
2023/01/26 01:09:39;;;;;;;30.48;16.42;;;2.60;99.90;;;;;;4952007;28;20694;-49
2023/01/26 01:12:06;;;;;;;33.72;17.45;;;2.60;99.90;;;;;;5020451;28;20203;-49
2023/01/26 01:14:32;;;;;;;34.35;16.80;;;2.30;99.90;;;;;;5020204;28;20657;-49
2023/01/26 01:16:59;;;;;;;28.58;17.42;;;2.50;99.90;;;;;;5020527;28;20242;-48
2023/01/26 01:19:26;;;;;;;34.25;18.23;;;2.40;99.90;;;;;;5019815;28;20216;-49
2023/01/26 01:21:52;;;;;;;31.05;16.73;;;1.80;99.90;;;;;;4953500;28;20711;-49
2023/01/26 01:24:20;;;;;;;36.33;18.38;;;2.80;99.90;;;;;;4953451;29;20199;-48
2023/01/26 01:26:47;;;;;;;26.00;15.93;;;2.30;99.90;;;;;;5019749;28;20203;-49
2023/01/26 01:29:14;;;;;;;30.45;15.82;;;2.50;99.90;;;;;;4953170;28;20609;-49
2023/01/26 01:31:42;;;;;;;34.38;18.48;;;2.70;99.90;;;;;;4953400;28;20191;-49
2023/01/26 01:34:09;;;;;;;33.05;17.40;;;2.80;99.90;;;;;;5019952;28;20621;-49
2023/01/26 01:36:36;;;;;;;31.48;17.23;;;2.90;99.90;;;;;;4953208;28;20199;-49
2023/01/26 01:39:03;;;;;;;28.83;17.55;;;2.80;99.90;;;;;;5019366;28;20210;-49
2023/01/26 01:41:31;;;;;;;31.60;19.10;;;3.00;99.90;;;;;;5019890;28;20222;-49
2023/01/26 01:44:18;;;;;;;36.55;20.33;;;2.90;99.90;;;;;;4953208;29;20208;-47
2023/01/26 01:46:48;;;;;;;29.10;17.50;;;2.90;99.90;;;;;;4953226;28;20195;-48
2023/01/26 01:49:19;;;;;;;29.65;18.25;;;3.10;99.90;;;;;;4952872;28;20203;-48
2023/01/26 01:51:51;;;;;;;28.60;17.40;;;3.10;99.90;;;;;;4953132;29;20772;-47
2023/01/26 01:54:26;;;;;;;33.80;17.27;;;3.00;99.90;;;;;;5019687;28;20212;-47
2023/01/26 01:56:58;;;;;;;29.00;18.00;;;2.60;99.90;;;;;;4952755;28;20223;-48
2023/01/26 01:59:25;;;;;;;35.25;18.85;;;2.80;99.90;;;;;;5018819;28;20204;-49
2023/01/26 02:01:55;;;;;;;33.45;18.95;;;3.00;99.90;;;;;;5019286;28;20207;-48
2023/01/26 02:04:23;;;;;;;32.65;16.83;;;3.10;99.90;;;;;;5019333;28;20207;-49
2023/01/26 02:06:52;;;;;;;33.40;18.48;;;2.70;99.90;;;;;;4952673;28;20673;-47
2023/01/26 02:12:13;;;;;;;32.97;19.67;;;2.90;99.90;;;;;;4951773;29;20204;-49
2023/01/26 02:14:41;;;;;;;34.05;19.50;;;2.50;99.90;;;;;;4951809;29;20203;-48
2023/01/26 02:17:09;;;;;;;37.50;21.77;;;2.70;99.90;;;;;;4951697;28;20253;-47
2023/01/26 02:19:46;;;;;;;29.40;19.90;;;2.70;99.90;;;;;;4951378;28;20260;-48
2023/01/26 02:22:21;;;;;;;32.70;17.08;;;2.90;99.90;;;;;;4950925;28;20202;-47
2023/01/26 02:24:49;;;;;;;34.17;18.42;;;2.60;99.90;;;;;;5017919;28;20210;-48
2023/01/26 02:27:17;;;;;;;31.50;17.13;;;3.00;99.90;;;;;;5017713;28;20273;-48
2023/01/26 02:29:44;;;;;;;37.20;18.33;;;2.90;99.90;;;;;;5017636;28;20207;-48
2023/01/26 02:32:10;;;;;;;39.67;20.48;;;2.80;99.90;;;;;;4951596;28;20256;-47
2023/01/26 02:34:37;;;;;;;37.92;20.45;;;2.80;99.90;;;;;;4951485;29;20203;-47
2023/01/26 02:37:04;;;;;;;34.78;18.08;;;2.70;99.90;;;;;;4951467;28;20708;-49
2023/01/26 02:39:44;;;;;;;35.88;19.42;;;2.70;99.90;;;;;;5017184;28;20310;-47
2023/01/26 02:44:57;;;;;;;32.67;17.90;;;2.90;99.90;;;;;;5017829;28;20252;-46
2023/01/26 02:47:23;;;;;;;33.85;16.90;;;2.50;99.90;;;;;;5017403;28;20216;-48
2023/01/26 02:49:50;;;;;;;37.35;18.92;;;2.10;99.90;;;;;;5017233;28;20207;-47
2023/01/26 02:52:20;;;;;;;37.22;19.05;;;2.40;99.90;;;;;;5017561;28;20302;-47
2023/01/26 02:57:37;;;;;;;32.85;17.50;;;2.60;99.90;;;;;;5017166;28;20273;-48
2023/01/26 03:00:09;;;;;;;34.80;17.35;;;2.80;99.90;;;;;;5017192;28;20235;-47
2023/01/26 03:02:36;;;;;;;36.20;17.85;;;2.50;99.90;;;;;;4951333;28;20195;-47
2023/01/26 03:05:04;;;;;;;33.85;16.67;;;2.10;99.90;;;;;;5017180;28;20208;-47
2023/01/26 03:07:30;;;;;;;31.37;18.80;;;2.70;99.90;;;;;;4983531;28;988388;-48
2023/01/26 03:09:58;;;;;;;32.00;18.10;;;2.00;99.90;;;;;;5017812;28;20219;-47
2023/01/26 03:12:25;;;;;;;32.38;18.33;;;2.70;99.90;;;;;;5018050;28;20280;-48
2023/01/26 03:15:33;;;;;;;31.55;16.95;;;2.00;99.90;;;;;;4951750;28;20295;-49
2023/01/26 03:17:44;;;;;;;34.00;17.80;;;2.60;99.90;;;;;;5017940;28;20631;-48
2023/01/26 03:28:26;;;;;;;32.40;17.30;;;2.40;99.90;;;;;;5017390;28;20284;-48
2023/01/26 03:30:56;;;;;;;37.17;19.77;;;2.30;99.90;;;;;;5017529;28;20297;-49
2023/01/26 03:33:24;;;;;;;35.63;18.73;;;1.90;99.90;;;;;;5017548;28;20287;-48
2023/01/26 03:35:53;;;;;;;32.88;17.33;;;2.70;99.90;;;;;;5017437;28;20238;-47
2023/01/26 03:38:22;;;;;;;34.63;18.67;;;1.80;99.90;;;;;;5017187;28;20321;-47
2023/01/26 03:57:22;;;;;;;28.30;17.20;;;2.50;99.90;;;;;;5017403;28;20227;-49
2023/01/26 03:59:49;;;;;;;27.58;15.32;;;2.50;99.90;;;;;;5017069;28;20294;-47
2023/01/26 04:08:20;;;;;;;25.92;16.25;;;2.50;99.90;;;;;;5018147;28;20746;-48
2023/01/26 04:10:47;;;;;;;24.92;16.70;;;2.50;99.90;;;;;;5017620;28;20232;-46
2023/01/26 04:21:34;;;;;;;28.30;16.45;;;2.40;99.90;;;;;;5017083;28;20206;-47
2023/01/26 04:24:12;;;;;;;26.33;16.75;;;2.30;99.90;;;;;;5017191;28;20256;-46
2023/01/26 04:26:40;;;;;;;34.58;18.23;;;2.40;99.90;;;;;;5016937;28;20230;-47
2023/01/26 04:29:13;;;;;;;32.45;18.20;;;2.40;99.90;;;;;;5016597;28;20204;-47
2023/01/26 04:31:42;;;;;;;31.15;17.25;;;2.30;99.90;;;;;;5017192;28;20214;-49
2023/01/26 04:34:12;;;;;;;25.10;15.85;;;2.50;99.90;;;;;;5016968;28;20216;-47
2023/01/26 04:36:42;;;;;;;25.85;15.68;;;2.40;99.90;;;;;;5017073;28;20239;-48
2023/01/26 04:39:09;;;;;;;27.13;16.38;;;2.50;99.90;;;;;;5016336;28;20233;-47
2023/01/26 04:41:38;;;;;;;27.67;16.58;;;2.40;99.90;;;;;;5016818;28;20208;-48
2023/01/26 04:44:08;;;;;;;28.85;17.55;;;2.30;99.90;;;;;;5017538;28;20210;-48
2023/01/26 04:46:35;;;;;;;28.48;17.98;;;2.30;99.90;;;;;;5020784;28;20210;-48
2023/01/26 04:49:03;;;;;;;27.23;16.10;;;2.50;99.90;;;;;;5020071;28;20207;-47
2023/01/26 04:51:30;;;;;;;29.65;18.40;;;1.80;99.90;;;;;;5021090;28;20273;-48
2023/01/26 04:53:58;;;;;;;31.58;18.35;;;2.30;99.90;;;;;;5020678;28;20663;-48
2023/01/26 04:56:26;;;;;;;30.30;18.48;;;2.40;99.90;;;;;;5020562;28;20214;-48
2023/01/26 04:58:55;;;;;;;29.23;18.48;;;2.40;99.90;;;;;;5020041;28;20224;-47
2023/01/26 05:01:23;;;;;;;27.27;17.27;;;2.30;99.90;;;;;;5020623;28;20204;-47
2023/01/26 05:03:50;;;;;;;25.10;16.38;;;1.80;99.90;;;;;;5020627;28;20203;-48
2023/01/26 05:06:17;;;;;;;22.95;16.08;;;2.60;99.90;;;;;;5020356;28;20298;-48
2023/01/26 05:08:45;;;;;;;21.55;14.93;;;2.70;99.90;;;;;;5019982;28;20322;-48
2023/01/26 05:11:13;;;;;;;24.95;17.15;;;2.30;99.90;;;;;;5020387;28;20205;-48
2023/01/26 05:13:55;;;;;;;27.65;16.08;;;2.70;99.90;;;;;;5020073;28;20215;-49
2023/01/26 05:16:25;;;;;;;19.75;14.55;;;2.40;99.90;;;;;;5019934;28;20238;-48
2023/01/26 05:19:23;;;;;;;24.75;15.13;;;2.50;99.90;;;;;;4985623;28;20239;-47
2023/01/26 05:22:10;;;;;;;27.35;15.95;;;2.50;99.90;;;;;;4953738;28;20282;-48
2023/01/26 05:24:39;;;;;;;27.80;16.73;;;2.50;99.90;;;;;;5019807;28;20203;-49
2023/01/26 05:27:20;;;;;;;27.65;15.57;;;2.50;99.90;;;;;;5019947;28;20626;-48
2023/01/26 05:29:52;;;;;;;30.02;17.75;;;2.60;99.90;;;;;;5019535;28;20211;-49
2023/01/26 05:32:20;;;;;;;32.45;16.75;;;2.30;99.90;;;;;;5019749;28;20204;-48
2023/01/26 05:34:49;;;;;;;25.73;16.15;;;2.60;99.90;;;;;;5020195;28;20542;-48
2023/01/26 05:37:15;;;;;;;26.98;15.65;;;2.30;99.90;;;;;;5019688;28;20228;-50
2023/01/26 05:39:46;;;;;;;30.10;15.05;;;2.20;99.90;;;;;;5019153;28;20637;-49
2023/01/26 05:42:13;;;;;;;28.90;16.30;;;2.10;99.90;;;;;;5019654;28;20290;-50
2023/01/26 05:45:09;;;;;;;31.40;15.52;;;2.20;99.90;;;;;;5019620;28;20219;-46
2023/01/26 05:47:38;;;;;;;25.45;14.50;;;2.10;99.90;;;;;;5019687;28;20687;-49
2023/01/26 05:50:06;;;;;;;26.20;15.23;;;2.40;99.90;;;;;;5019373;28;20215;-50
2023/01/26 05:52:34;;;;;;;27.45;15.85;;;2.30;99.90;;;;;;5020218;28;20204;-49
2023/01/26 05:55:01;;;;;;;26.50;15.75;;;2.20;99.90;;;;;;5018990;28;20393;-48
2023/01/26 05:57:28;;;;;;;28.95;15.18;;;2.20;99.90;;;;;;5018862;28;20227;-50
2023/01/26 06:00:00;;;;;;;27.70;15.00;;;1.80;99.90;;;;;;5019230;28;20273;-49
2023/01/26 06:02:28;;;;;;;28.90;16.40;;;2.30;99.90;;;;;;5019598;28;20741;-49
2023/01/26 06:04:55;;;;;;;23.70;15.60;;;2.40;99.90;;;;;;5019514;28;20329;-47
2023/01/26 06:07:22;;;;;;;26.08;15.60;;;2.40;99.90;;;;;;5019724;28;20707;-47
2023/01/26 06:10:11;;;;;;;37.65;15.13;;;2.50;99.90;;;;;;5018989;28;20290;-47
2023/01/26 06:12:58;;;;;;;26.88;14.45;;;2.60;99.90;;;;;;5019235;28;20207;-47
2023/01/26 06:15:54;;;;;;;29.80;15.20;;;2.30;99.90;;;;;;4965512;28;20294;-47
2023/01/26 06:18:26;;;;;;;23.90;14.25;;;2.20;99.90;;;;;;5018173;28;20775;-47
2023/01/26 06:20:58;;;;;;;24.75;13.73;;;2.40;99.90;;;;;;5019214;28;20215;-46
2023/01/26 06:23:25;;;;;;;24.67;14.25;;;2.20;99.90;;;;;;5018888;28;20289;-47
2023/01/26 06:25:53;;;;;;;22.60;14.02;;;2.30;99.90;;;;;;5019143;28;20612;-48
2023/01/26 06:28:20;;;;;;;23.60;15.40;;;2.60;99.90;;;;;;5018494;28;20226;-48
2023/01/26 06:30:47;;;;;;;22.65;13.95;;;2.20;99.90;;;;;;5018208;28;20223;-48
2023/01/26 06:33:14;;;;;;;26.10;14.23;;;2.20;99.90;;;;;;5018641;28;20740;-47
2023/01/26 06:35:42;;;;;;;25.95;14.80;;;2.50;99.90;;;;;;5018382;28;20512;-48
2023/01/26 06:38:14;;;;;;;27.13;14.80;;;2.40;99.90;;;;;;5017802;28;20726;-47
2023/01/26 06:40:40;;;;;;;24.27;15.50;;;1.70;99.90;;;;;;5017710;28;20691;-48
2023/01/26 06:43:07;;;;;;;24.52;13.60;;;2.70;99.90;;;;;;5018059;28;20261;-48
2023/01/26 06:45:34;;;;;;;25.20;13.88;;;2.50;99.90;;;;;;5018686;28;20218;-48
2023/01/26 06:48:00;;;;;;;25.30;15.23;;;2.20;99.90;;;;;;4951955;28;20219;-48
2023/01/26 06:50:32;;;;;;;22.67;12.57;;;2.60;99.90;;;;;;4951745;28;20203;-48
2023/01/26 06:53:04;;;;;;;24.58;12.85;;;2.20;99.90;;;;;;5018214;28;20235;-48
2023/01/26 06:55:53;;;;;;;24.67;12.95;;;2.20;99.90;;;;;;4952755;28;20215;-49
2023/01/26 06:58:31;;;;;;;24.95;14.25;;;2.00;99.90;;;;;;5017409;28;20767;-48
2023/01/26 07:01:09;;;;;;;22.17;13.68;;;2.30;99.90;;;;;;4952447;28;20203;-47
2023/01/26 07:03:36;;;;;;;31.05;14.43;;;2.20;99.90;;;;;;4951779;28;20199;-47
2023/01/26 07:06:02;;;;;;;21.05;12.00;;;2.00;99.90;;;;;;4951460;29;20688;-48
2023/01/26 07:08:30;;;;;;;22.88;12.85;;;2.40;99.90;;;;;;4950979;28;20230;-48
2023/01/26 07:10:57;;;;;;;24.48;13.30;;;2.20;99.90;;;;;;4951987;28;20210;-48
2023/01/26 07:13:23;;;;;;;24.35;13.85;;;2.30;99.90;;;;;;5017978;28;20557;-47
2023/01/26 07:15:50;;;;;;;20.75;12.95;;;2.20;99.90;;;;;;4951736;28;20206;-48
2023/01/26 07:18:16;;;;;;;27.48;14.02;;;1.50;99.90;;;;;;4951138;28;20231;-47
2023/01/26 07:20:43;;;;;;;23.85;13.60;;;2.30;99.90;;;;;;4951307;28;20214;-49
2023/01/26 07:23:10;;;;;;;23.55;13.95;;;2.10;99.90;;;;;;4951765;28;20266;-49
2023/01/26 07:25:38;;;;;;;19.20;11.90;;;2.20;99.90;;;;;;4951900;29;20204;-49
2023/01/26 07:28:08;;;;;;;24.55;12.82;;;2.20;99.90;;;;;;4951841;28;20218;-49
2023/01/26 07:30:35;;;;;;;21.73;11.88;;;2.20;99.90;;;;;;4951651;29;20285;-47
2023/01/26 07:33:02;;;;;;;20.00;10.95;;;2.10;99.90;;;;;;5017190;28;20647;-47
2023/01/26 07:35:28;;;;;;;22.20;12.40;;;2.70;99.90;;;;;;4951077;29;20679;-48
2023/01/26 07:37:57;;;;;;;17.15;10.73;;;2.00;99.90;;;;;;4951012;28;20704;-48
2023/01/26 07:40:24;;;;;;;18.52;12.00;;;2.00;99.90;;;;;;4951028;28;20707;-47
2023/01/26 07:42:51;;;;;;;20.10;11.13;;;1.50;99.90;;;;;;4951243;28;20660;-48
2023/01/26 07:45:20;;;;;;;24.38;13.30;;;2.40;99.90;;;;;;4951390;29;20282;-47
2023/01/26 07:47:46;;;;;;;21.40;11.30;;;2.20;99.90;;;;;;4951158;28;20242;-48
2023/01/26 07:50:13;;;;;;;20.88;10.43;;;2.00;99.90;;;;;;5016994;28;20203;-48
2023/01/26 07:52:40;;;;;;;21.30;12.40;;;2.40;99.90;;;;;;4950961;29;20199;-48
2023/01/26 07:55:07;;;;;;;18.80;11.60;;;1.80;99.90;;;;;;4951079;29;20676;-48
2023/01/26 07:57:34;;;;;;;24.52;13.35;;;2.30;99.90;;;;;;4950871;28;20584;-48
2023/01/26 08:00:03;;;;;;;32.05;13.40;;;2.40;99.90;;;;;;4950451;28;20322;-48
2023/01/26 08:02:38;;;;;;;18.00;11.95;;;2.40;99.90;;;;;;4951280;28;20565;-48
2023/01/26 08:05:05;;;;;;;19.48;10.90;;;2.30;99.90;;;;;;4951134;28;20214;-48
2023/01/26 08:07:32;;;;;;;19.48;11.18;;;2.30;99.90;;;;;;4951633;28;20241;-48
2023/01/26 08:09:59;;;;;;;19.48;11.30;;;1.60;99.90;;;;;;4951098;28;20625;-47
2023/01/26 08:12:26;;;;;;;16.73;10.50;;;2.40;99.90;;;;;;4951222;29;20202;-48
2023/01/26 08:14:53;;;;;;;17.73;10.93;;;2.20;99.90;;;;;;4951234;28;20191;-49
2023/01/26 08:17:21;;;;;;;17.88;10.68;;;2.10;99.90;;;;;;4951299;28;20223;-48
2023/01/26 08:19:47;;;;;;;22.85;14.23;;;2.10;99.90;;;;;;4951820;29;20227;-48
2023/01/26 08:22:14;;;;;;;16.65;9.85;;;2.30;99.90;;;;;;4954350;28;20238;-49
2023/01/26 08:24:41;;;;;;;18.27;10.88;;;2.10;99.90;;;;;;4954011;28;20221;-48
2023/01/26 08:27:07;;;;;;;16.50;10.25;;;2.40;99.90;;;;;;4954619;28;20234;-47
2023/01/26 08:29:34;;;;;;;19.08;10.82;;;2.00;99.90;;;;;;4954307;29;20199;-48
2023/01/26 08:32:01;;;;;;;16.17;10.70;;;2.20;99.90;;;;;;4954062;28;20210;-49
2023/01/26 08:34:29;;;;;;;15.77;10.50;;;2.00;99.90;;;;;;4954187;28;20204;-48
2023/01/26 08:36:55;;;;;;;19.52;11.70;;;1.80;99.90;;;;;;4954353;28;20200;-49
2023/01/26 08:39:22;;;;;;;16.20;10.77;;;1.60;99.90;;;;;;5021146;28;20688;-47
2023/01/26 08:41:48;;;;;;;16.23;11.10;;;2.10;99.90;;;;;;4954404;29;20196;-48
2023/01/26 08:44:15;;;;;;;19.70;11.70;;;2.00;99.90;;;;;;4954647;29;20195;-48
2023/01/26 08:46:43;;;;;;;16.70;10.20;;;2.40;99.90;;;;;;4954615;28;20683;-49
2023/01/26 08:49:10;;;;;;;17.35;11.68;;;2.20;99.90;;;;;;4954194;28;20195;-49
2023/01/26 08:51:38;;;;;;;23.00;11.70;;;2.00;99.90;;;;;;4954857;29;20210;-48
2023/01/26 08:54:07;;;;;;;19.17;10.65;;;2.30;99.90;;;;;;5021204;28;20203;-48
2023/01/26 08:56:34;;;;;;;16.90;11.65;;;2.30;99.90;;;;;;4953987;28;20203;-47
2023/01/26 08:59:01;;;;;;;19.73;10.07;;;2.50;99.90;;;;;;4953523;28;20311;-47
2023/01/26 09:01:27;;;;;;;14.80;10.00;;;2.30;99.90;;;;;;4953938;28;20559;-48
2023/01/26 09:03:55;;;;;;;17.42;11.13;;;2.50;99.90;;;;;;4953853;29;20612;-48
2023/01/26 09:06:22;;;;;;;17.90;10.23;;;2.10;99.90;;;;;;4954455;28;20596;-49
2023/01/26 09:08:50;;;;;;;18.17;10.95;;;2.30;99.90;;;;;;4953163;28;20235;-49
2023/01/26 09:11:16;;;;;;;16.45;10.80;;;2.10;99.90;;;;;;4953157;29;20591;-49
2023/01/26 09:13:43;;;;;;;13.50;9.52;;;2.10;99.90;;;;;;4953887;28;20204;-49
2023/01/26 09:16:16;;;;;;;16.95;10.98;;;2.00;99.90;;;;;;4953721;28;20207;-49
2023/01/26 09:18:43;;;;;;;16.95;10.18;;;1.90;99.90;;;;;;4953444;28;20238;-48
2023/01/26 09:21:11;;;;;;;13.02;9.63;;;2.20;99.90;;;;;;4953475;29;20199;-48
2023/01/26 09:23:38;;;;;;;15.85;9.30;;;2.30;99.90;;;;;;4953501;28;20287;-49
2023/01/26 09:26:05;;;;;;;16.60;10.02;;;1.40;99.90;;;;;;4953734;28;20204;-49
2023/01/26 09:28:32;;;;;;;16.83;11.18;;;2.30;99.90;;;;;;4953527;28;20226;-48
2023/01/26 09:31:03;;;;;;;22.70;11.07;;;2.00;99.90;;;;;;4953629;28;20725;-47
2023/01/26 09:33:29;;;;;;;19.88;11.68;;;2.00;99.90;;;;;;4953363;28;20211;-48
2023/01/26 09:35:56;;;;;;;17.88;10.70;;;2.00;99.90;;;;;;4953518;28;20283;-48
2023/01/26 09:38:23;;;;;;;20.02;13.23;;;1.50;99.90;;;;;;4952985;28;20917;-48
2023/01/26 09:41:00;;;;;;;14.65;10.55;;;2.30;99.90;;;;;;4952691;29;20815;-48
2023/01/26 09:43:37;;;;;;;17.52;11.25;;;2.20;99.90;;;;;;4953621;28;20694;-48
2023/01/26 09:46:17;;;;;;;17.38;10.80;;;2.10;99.90;;;;;;4953208;28;20210;-49
2023/01/26 09:48:50;;;;;;;17.65;12.05;;;2.10;99.90;;;;;;4953046;28;20224;-48
2023/01/26 09:51:23;;;;;;;21.85;11.65;;;2.10;99.90;;;;;;4953224;28;20200;-49
2023/01/26 09:53:56;;;;;;;20.48;11.43;;;2.20;99.90;;;;;;4953408;28;20206;-47
2023/01/26 09:56:27;;;;;;;20.35;11.57;;;2.20;99.90;;;;;;5019833;28;20243;-48
2023/01/26 09:58:59;;;;;;;17.85;13.40;;;2.20;99.90;;;;;;4952856;28;20216;-48
2023/01/26 10:01:33;;;;;;;21.75;14.90;;;2.10;99.90;;;;;;4953000;29;20196;-48
2023/01/26 10:04:05;;;;;;;16.88;11.55;;;2.10;99.90;;;;;;4953227;28;20199;-48
2023/01/26 10:06:32;;;;;;;22.77;12.77;;;2.20;99.90;;;;;;4952784;29;20199;-48
2023/01/26 10:09:24;;;;;;;19.00;13.35;;;2.50;99.90;;;;;;4952079;29;20690;-48
2023/01/26 10:11:54;;;;;;;21.98;12.48;;;2.20;99.90;;;;;;4953062;28;20231;-48
2023/01/26 10:14:41;;;;;;;30.50;13.10;;;2.10;99.90;;;;;;4952998;28;20095;-48
2023/01/26 10:17:15;;;;;;;20.35;11.52;;;2.30;99.90;;;;;;4952406;28;20455;-48
2023/01/26 10:19:45;;;;;;;19.85;12.30;;;2.10;99.90;;;;;;4952130;28;20606;-48
2023/01/26 10:22:16;;;;;;;19.30;11.85;;;2.40;99.90;;;;;;4952350;29;20211;-49
2023/01/26 10:24:51;;;;;;;16.30;11.07;;;2.10;99.90;;;;;;4952574;29;20750;-48
2023/01/26 10:27:18;;;;;;;19.27;12.85;;;2.00;99.90;;;;;;4952606;28;20227;-48
2023/01/26 10:29:46;;;;;;;22.57;15.10;;;2.00;99.90;;;;;;4951734;29;20473;-48
2023/01/26 10:32:14;;;;;;;19.85;14.00;;;2.80;99.90;;;;;;4952291;28;20439;-47
2023/01/26 10:34:41;;;;;;;19.23;11.70;;;2.30;99.90;;;;;;4952412;29;20211;-47
2023/01/26 10:37:20;;;;;;;17.80;12.75;;;2.40;99.90;;;;;;4952475;28;20223;-47
2023/01/26 10:40:01;;;;;;;20.05;12.02;;;2.10;99.90;;;;;;4951993;29;20219;-48
2023/01/26 10:42:29;;;;;;;21.17;13.68;;;2.30;99.90;;;;;;4951707;28;20286;-48
2023/01/26 10:45:00;;;;;;;21.83;12.68;;;2.40;99.90;;;;;;4951594;29;20573;-48
2023/01/26 10:47:28;;;;;;;20.23;12.82;;;2.40;99.90;;;;;;4952065;28;20218;-49
2023/01/26 10:50:15;;;;;;;17.02;12.13;;;2.30;99.90;;;;;;4951942;28;20202;-49
2023/01/26 10:52:57;;;;;;;18.27;12.35;;;2.20;99.90;;;;;;4952040;29;20545;-49
2023/01/26 10:55:24;;;;;;;22.60;11.35;;;2.40;99.90;;;;;;4952119;29;20232;-48
2023/01/26 10:57:50;;;;;;;20.65;13.02;;;2.30;99.90;;;;;;4951989;28;20215;-48
2023/01/26 11:00:27;;;;;;;21.50;11.10;;;2.40;99.90;;;;;;4952227;29;20227;-47
2023/01/26 11:02:56;;;;;;;19.95;11.63;;;2.10;99.90;;;;;;4952063;29;20226;-47
2023/01/26 11:05:42;;;;;;;17.10;11.93;;;2.20;99.90;;;;;;4952417;29;20199;-48
2023/01/26 11:08:32;;;;;;;20.65;12.57;;;2.10;99.90;;;;;;5018425;28;20231;-48
2023/01/26 11:10:59;;;;;;;21.35;12.32;;;2.40;99.90;;;;;;4952425;28;20197;-48
2023/01/26 11:13:25;;;;;;;18.80;12.35;;;2.10;99.90;;;;;;4952198;28;20211;-48
2023/01/26 11:16:04;;;;;;;17.02;10.60;;;2.30;99.90;;;;;;4951937;28;20214;-49
2023/01/26 11:18:42;;;;;;;19.52;11.90;;;2.40;99.90;;;;;;4950953;28;20223;-48
2023/01/26 11:21:15;;;;;;;19.70;12.63;;;1.90;99.90;;;;;;4951789;28;20235;-47
2023/01/26 11:23:52;;;;;;;19.73;12.18;;;2.00;99.90;;;;;;4952227;28;20210;-47
2023/01/26 11:26:57;;;;;;;25.35;11.43;;;2.20;99.90;;;;;;4952465;28;20199;-49
2023/01/26 11:29:57;;;;;;;16.08;10.80;;;2.20;99.90;;;;;;4951192;29;20191;-48
2023/01/26 11:32:34;;;;;;;22.40;12.40;;;2.10;99.90;;;;;;4952274;28;20210;-48
2023/01/26 11:35:13;;;;;;;17.58;10.95;;;2.50;99.90;;;;;;4951570;29;20203;-49
2023/01/26 11:37:44;;;;;;;19.08;11.30;;;2.30;99.90;;;;;;4951451;28;20223;-49
2023/01/26 11:40:30;;;;;;;13.57;8.90;;;2.10;99.90;;;;;;4951135;28;20655;-49
2023/01/26 11:43:12;;;;;;;14.95;9.30;;;2.40;99.90;;;;;;4951831;29;20203;-49
2023/01/26 11:45:52;;;;;;;15.73;10.40;;;2.50;99.90;;;;;;4951265;28;20238;-49
2023/01/26 11:48:28;;;;;;;14.60;9.75;;;2.10;99.90;;;;;;4950699;28;20227;-49
2023/01/26 11:51:00;;;;;;;14.52;9.70;;;2.40;99.90;;;;;;4950925;28;20726;-49
2023/01/26 11:53:51;;;;;;;13.05;8.82;;;2.70;99.90;;;;;;4951096;28;20207;-48
2023/01/26 11:56:26;;;;;;;18.63;9.40;;;2.70;99.90;;;;;;4950852;28;20204;-50
2023/01/26 11:58:58;;;;;;;12.18;8.35;;;2.40;99.90;;;;;;4950387;28;20711;-48
2023/01/26 12:01:29;;;;;;;11.68;8.48;;;1.80;99.90;;;;;;4950813;29;20234;-49
2023/01/26 12:03:58;;;;;;;13.10;9.05;;;2.50;99.90;;;;;;4951254;28;20203;-48
2023/01/26 12:06:31;;;;;;;11.60;9.23;;;2.50;99.90;;;;;;4951268;29;20196;-50
2023/01/26 12:09:02;;;;;;;12.40;9.10;;;2.70;99.90;;;;;;4950792;28;20567;-48
2023/01/26 12:11:35;;;;;;;12.45;8.13;;;2.50;99.90;;;;;;4950170;29;20203;-47
2023/01/26 12:14:15;;;;;;;9.43;7.63;;;2.40;99.90;;;;;;4950751;28;20214;-46
2023/01/26 12:16:53;;;;;;;13.85;8.63;;;2.50;99.90;;;;;;4950591;28;20206;-47
2023/01/26 12:19:36;;;;;;;12.02;8.13;;;2.60;99.90;;;;;;4949751;28;20214;-49
2023/01/26 12:22:10;;;;;;;8.38;5.68;;;2.40;99.90;;;;;;4950765;28;20691;-50
2023/01/26 12:24:41;;;;;;;7.43;6.22;;;2.40;99.90;;;;;;4951012;29;20221;-47
2023/01/26 12:27:16;;;;;;;8.13;6.28;;;2.40;99.90;;;;;;4950727;28;20223;-47
2023/01/26 12:29:50;;;;;;;11.43;6.85;;;2.50;99.90;;;;;;4950737;28;20198;-48
2023/01/26 12:32:17;;;;;;;10.45;6.80;;;2.70;99.90;;;;;;4950827;29;20611;-48
2023/01/26 12:34:45;;;;;;;12.02;7.82;;;2.80;99.90;;;;;;4950750;28;20308;-48
2023/01/26 12:37:31;;;;;;;11.98;7.93;;;2.80;99.90;;;;;;4950575;28;20224;-49
2023/01/26 12:40:09;;;;;;;15.02;9.10;;;2.60;99.90;;;;;;4950551;28;20223;-48
2023/01/26 12:42:44;;;;;;;14.48;9.90;;;2.90;99.90;;;;;;4950944;28;20668;-48
2023/01/26 12:45:18;;;;;;;13.00;9.00;;;2.90;99.90;;;;;;4950627;29;20199;-47
2023/01/26 12:47:48;;;;;;;11.80;7.82;;;2.80;99.90;;;;;;4950526;28;20223;-47
2023/01/26 12:50:24;;;;;;;9.98;7.65;;;2.60;99.90;;;;;;5016698;28;20218;-47
2023/01/26 12:52:56;;;;;;;11.20;8.50;;;2.70;99.90;;;;;;4951223;28;20211;-48
2023/01/26 12:55:27;;;;;;;12.95;7.55;;;2.90;99.90;;;;;;4950875;28;20196;-49
2023/01/26 12:57:57;;;;;;;11.55;7.90;;;3.20;99.90;;;;;;4951284;28;20223;-49
2023/01/26 13:00:28;;;;;;;11.70;7.95;;;2.60;99.90;;;;;;4951509;28;20215;-48
2023/01/26 13:02:59;;;;;;;10.98;7.90;;;2.70;99.90;;;;;;4951103;28;20282;-48
2023/01/26 13:05:29;;;;;;;11.40;7.10;;;2.70;99.90;;;;;;5017725;28;20207;-47
2023/01/26 13:07:56;;;;;;;12.55;8.20;;;2.10;99.90;;;;;;4953649;28;20734;-48
2023/01/26 13:10:29;;;;;;;11.40;9.37;;;2.70;99.90;;;;;;4952163;28;20454;-48
2023/01/26 13:12:58;;;;;;;12.10;8.88;;;2.90;99.90;;;;;;4953571;28;20500;-47
2023/01/26 13:15:27;;;;;;;17.13;11.98;;;2.80;99.90;;;;;;5019642;28;20203;-48
2023/01/26 13:17:56;;;;;;;12.40;8.85;;;2.70;99.90;;;;;;4953053;28;20538;-48
2023/01/26 13:20:52;;;;;;;18.80;9.05;;;2.60;99.90;;;;;;4953242;28;20269;-48
2023/01/26 13:23:41;;;;;;;13.32;8.80;;;2.90;99.90;;;;;;4954356;29;20200;-48
2023/01/26 13:26:51;;;;;;;13.95;9.10;;;2.90;99.90;;;;;;4953793;28;20695;-48
2023/01/26 13:29:34;;;;;;;11.10;8.98;;;2.80;99.90;;;;;;4952716;28;20765;-48
2023/01/26 13:32:40;;;;;;;14.35;10.57;;;3.00;99.90;;;;;;4953324;28;20680;-47
2023/01/26 13:35:12;;;;;;;12.02;8.27;;;2.90;99.90;;;;;;4943490;28;20219;-48
2023/01/26 13:37:49;;;;;;;14.38;9.80;;;2.90;99.90;;;;;;4952884;28;20223;-48
2023/01/26 13:40:21;;;;;;;12.60;9.50;;;2.70;99.90;;;;;;4952580;29;20238;-48
2023/01/26 13:42:52;;;;;;;15.18;11.25;;;3.00;99.90;;;;;;4952556;29;20210;-49
2023/01/26 13:45:29;;;;;;;13.43;9.27;;;2.70;99.90;;;;;;4952791;28;20191;-47